Airfield :
LOGIN :

Register | Disclaimer

   EN    FR    IT 

 










Legend :    VFR   Marginal VFR   IFR   Intensive IFR   Very Intensive IFR
Visi :
Ceiling :
>= 8 km
>= 3000ft
5 to 8 km
1000 to 3000 ft
1500m to 5 km
500 to 1000 ft
800 to 1500m
200 to 500 ft
< 800m
< 200 ft
Symbols :   Thunderstorms  Fog  Heavy snow  Heavy precipitations  Wind > 20 kt
SIGMETs :     Misc.  Thunderstorms  Icing  Turbulence  Mountain Waves  Volcanic Ashes






- Airport Elevation : 75 ft
- IATA code : MRH


EGYM - RAF Marham

CURRENT METAR :
  • 281350Z 17016G28KT 9999 VCSH FEW030TCU SCT034 18/10 Q1014 TEMPO 6000 SHRA SCT020 RMK BLU TEMPO WHT

EXPIRED METARs :
  • 281320Z 17010KT 9999 SCT032 SCT050 16/12 Q1014 TEMPO 6000 SHRA SCT020 RMK BLU TEMPO WHT
  • 281250Z 17017KT 9999 VCSH FEW030TCU SCT034 18/11 Q1014 TEMPO 6000 SHRA SCT020 RMK BLU TEMPO WHT
  • 281220Z 18014KT 9999 VCSH FEW029TCU BKN032 17/11 Q1015 TEMPO 6000 SHRA SCT020 RMK BLU TEMPO WHT
  • 281150Z 18015KT 9999 -SHRA FEW028TCU BKN030 16/10 Q1015 TEMPO 6000 SHRA SCT020 RMK BLU TEMPO WHT
  • 281119Z 17017KT 9999 SCT028 SCT200 18/11 Q1015 NOSIG RMK BLU BLU

TAF TAF EGYM
Valid from the 28 at 12:00 until the 28 at 18:00 UTC


281017Z 2812/2818 18015KT 9999 FEW020 SCT030
TEMPO 2812/2818 18015G25KT 6000 SHRA SCT020 BKN030
PROB30
TEMPO 2814/2818 4000 +SHRA BKN020CB



MET'MAP, your aeronautical weather chart ! - Copyright ORBIFLY December 2007 - Disclaimer

ORBIFLY MET'MAP TEAM :

Programming & Development : Alexandra Zaïnal
Concept & original design : Baudouin d'Aumeries
Assistance for programming : Marc-Olivier Méhu
Technical & hardware support : Manuel Goepfert

Contact : metmap@orbifly.com




SOURCES & CREDITS :

   NOAA